createdAt,value
2023-02-20T00:01:07.745Z,4.13
2023-02-20T00:03:37.310Z,3.80
2023-02-20T00:06:06.912Z,4.20
2023-02-20T00:08:33.510Z,5.72
2023-02-20T00:11:02.231Z,3.05
2023-02-20T00:13:28.808Z,5.18
2023-02-20T00:15:58.071Z,3.55
2023-02-20T00:18:24.714Z,2.77
2023-02-20T00:20:51.355Z,5.55
2023-02-20T00:23:22.384Z,3.85
2023-02-20T00:25:53.690Z,5.40
2023-02-20T00:28:20.235Z,4.38
2023-02-20T00:30:46.842Z,2.57
2023-02-20T00:33:13.394Z,3.47
2023-02-20T00:35:39.966Z,5.97
2023-02-20T00:38:06.695Z,4.20
2023-02-20T00:40:33.273Z,5.72
2023-02-20T00:42:59.896Z,2.33
2023-02-20T00:45:29.042Z,3.28
2023-02-20T00:48:00.162Z,2.58
2023-02-20T00:50:26.779Z,3.53
2023-02-20T00:52:53.326Z,4.38
2023-02-20T00:55:19.993Z,2.57
2023-02-20T00:57:49.146Z,3.28
2023-02-20T01:00:24.569Z,3.55
2023-02-20T01:02:53.648Z,4.88
2023-02-20T01:05:20.584Z,1.65
2023-02-20T01:07:47.516Z,2.73
2023-02-20T01:10:14.828Z,4.88
2023-02-20T01:12:43.607Z,3.58
2023-02-20T01:15:14.585Z,4.18
2023-02-20T01:17:41.191Z,3.50
2023-02-20T01:20:10.896Z,3.33
2023-02-20T01:22:37.594Z,2.88
2023-02-20T01:25:04.850Z,3.13
2023-02-20T01:27:31.394Z,1.73
2023-02-20T01:30:00.927Z,4.30
2023-02-20T01:32:29.706Z,3.83
2023-02-20T01:34:56.249Z,2.95
2023-02-20T01:37:25.131Z,5.85
2023-02-20T01:39:53.917Z,5.85
2023-02-20T01:42:23.557Z,3.65
2023-02-20T01:44:52.392Z,2.43
2023-02-20T01:47:21.667Z,3.72
2023-02-20T01:49:50.285Z,4.35
2023-02-20T01:52:29.572Z,2.15
2023-02-20T01:55:05.404Z,3.72
2023-02-20T01:57:41.043Z,4.13
2023-02-20T02:00:14.347Z,3.22
2023-02-20T02:02:48.649Z,3.35
2023-02-20T02:05:17.328Z,2.75
2023-02-20T02:07:44.540Z,2.63
2023-02-20T02:10:24.559Z,4.93
2023-02-20T02:12:56.850Z,2.10
2023-02-20T02:15:27.148Z,3.28
2023-02-20T02:18:21.812Z,4.97
2023-02-20T02:21:23.260Z,3.28
2023-02-20T02:24:11.737Z,4.83
2023-02-20T02:26:43.357Z,4.72
2023-02-20T02:29:16.135Z,3.22
2023-02-20T02:31:54.736Z,3.78
2023-02-20T02:34:39.363Z,4.07
2023-02-20T02:37:16.784Z,3.80
2023-02-20T02:40:01.633Z,3.42
2023-02-20T02:42:59.052Z,7.43
2023-02-20T02:45:44.195Z,2.22
2023-02-20T02:48:32.197Z,2.40
2023-02-20T02:51:11.900Z,11.80
2023-02-20T02:53:38.416Z,10.15
2023-02-20T02:56:21.605Z,10.05
2023-02-20T02:58:50.983Z,11.15
2023-02-20T03:01:21.910Z,7.22
2023-02-20T03:03:52.853Z,5.50
2023-02-20T03:06:30.663Z,4.78
2023-02-20T03:09:03.759Z,5.13
2023-02-20T03:11:36.909Z,3.97
2023-02-20T03:14:43.281Z,4.15
2023-02-20T03:17:29.308Z,3.17
2023-02-20T03:19:59.649Z,5.25
2023-02-20T03:22:35.103Z,3.17
2023-02-20T03:25:23.291Z,4.50
2023-02-20T03:28:00.657Z,3.67
2023-02-20T03:30:38.909Z,3.40
2023-02-20T03:33:32.101Z,4.97
2023-02-20T03:36:22.748Z,3.83
2023-02-20T03:39:14.475Z,4.18
2023-02-20T03:42:01.552Z,4.13
2023-02-20T03:44:30.661Z,3.50
2023-02-20T03:46:59.029Z,4.90
2023-02-20T03:49:31.474Z,3.97
2023-02-20T03:52:00.898Z,4.80
2023-02-20T03:54:29.021Z,3.05
2023-02-20T03:57:03.396Z,6.33
2023-02-20T03:59:38.586Z,3.67
2023-02-20T04:02:28.393Z,4.57
2023-02-20T04:05:00.197Z,4.35
2023-02-20T04:07:34.748Z,3.88
2023-02-20T04:10:07.211Z,4.50
2023-02-20T04:12:42.045Z,4.72
2023-02-20T04:15:13.062Z,5.10
2023-02-20T04:17:47.126Z,6.70
2023-02-20T04:20:14.197Z,4.95
2023-02-20T04:22:46.984Z,4.50
2023-02-20T04:25:21.581Z,4.78
2023-02-20T04:27:52.894Z,4.35
2023-02-20T04:30:19.692Z,4.72
2023-02-20T04:32:46.318Z,4.03
2023-02-20T04:35:19.126Z,7.20
2023-02-20T04:37:46.122Z,6.07
2023-02-20T04:40:17.236Z,4.38
2023-02-20T04:42:43.764Z,3.38
2023-02-20T04:45:10.450Z,4.43
2023-02-20T04:47:39.307Z,5.53
2023-02-20T04:50:06.172Z,5.90
2023-02-20T04:52:32.709Z,5.78
2023-02-20T04:54:59.226Z,4.53
2023-02-20T04:57:30.585Z,3.58
2023-02-20T04:59:57.128Z,4.47
2023-02-20T05:02:23.803Z,4.35
2023-02-20T05:04:50.435Z,3.60
2023-02-20T05:07:19.381Z,4.15
2023-02-20T05:09:45.970Z,5.50
2023-02-20T05:12:15.520Z,4.10
2023-02-20T05:14:44.305Z,4.97
2023-02-20T05:17:13.133Z,4.30
2023-02-20T05:19:39.712Z,5.07
2023-02-20T05:22:21.536Z,5.25
2023-02-20T05:24:50.112Z,5.00
2023-02-20T05:27:21.185Z,3.88
2023-02-20T05:29:53.725Z,3.92
2023-02-20T05:32:21.979Z,7.45
2023-02-20T05:34:49.039Z,5.28
2023-02-20T05:37:17.890Z,5.57
2023-02-20T05:39:47.194Z,5.15
2023-02-20T05:42:14.784Z,4.78
2023-02-20T05:44:41.616Z,8.05
2023-02-20T05:47:10.979Z,4.35
2023-02-20T05:49:40.158Z,5.63
2023-02-20T05:52:11.973Z,6.07
2023-02-20T05:54:39.648Z,4.55
2023-02-20T05:57:08.696Z,5.93
2023-02-20T05:59:35.263Z,5.85
2023-02-20T06:02:04.031Z,4.83
2023-02-20T06:04:33.447Z,6.07
2023-02-20T06:07:00.138Z,4.97
2023-02-20T06:09:26.777Z,6.55
2023-02-20T06:11:57.952Z,6.20
2023-02-20T06:14:26.566Z,5.50
2023-02-20T06:16:56.415Z,6.95
2023-02-20T06:19:25.668Z,6.53
2023-02-20T06:21:53.763Z,5.97
2023-02-20T06:24:21.517Z,5.68
2023-02-20T06:26:52.206Z,5.17
2023-02-20T06:29:21.737Z,5.03
2023-02-20T06:31:48.395Z,6.63
2023-02-20T06:34:16.392Z,5.05
2023-02-20T06:36:45.712Z,5.30
2023-02-20T06:39:13.987Z,5.47
2023-02-20T06:41:40.994Z,4.97
2023-02-20T06:44:08.095Z,5.07
2023-02-20T06:46:36.951Z,7.15
2023-02-20T06:49:05.807Z,5.85
2023-02-20T06:51:34.383Z,4.80
2023-02-20T06:54:01.811Z,6.45
2023-02-20T06:56:31.359Z,5.03
2023-02-20T06:59:01.706Z,7.28
2023-02-20T07:01:31.016Z,4.80
2023-02-20T07:04:03.036Z,7.27
2023-02-20T07:06:29.618Z,7.18
2023-02-20T07:08:56.278Z,5.93
2023-02-20T07:11:24.033Z,5.53
2023-02-20T07:13:53.391Z,9.77
2023-02-20T07:16:22.662Z,5.73
2023-02-20T07:18:49.201Z,6.55
2023-02-20T07:21:16.652Z,7.50
2023-02-20T07:23:45.182Z,7.22
2023-02-20T07:26:28.044Z,8.60
2023-02-20T07:28:58.494Z,7.37
2023-02-20T07:31:27.884Z,6.43
2023-02-20T07:33:54.553Z,6.53
2023-02-20T07:36:23.581Z,7.18
2023-02-20T07:38:58.437Z,6.32
2023-02-20T07:41:29.606Z,7.03
2023-02-20T07:43:59.369Z,6.00
2023-02-20T07:46:33.925Z,6.60
2023-02-20T07:49:02.865Z,9.20
2023-02-20T07:51:32.107Z,8.07
2023-02-20T07:53:58.763Z,5.53
2023-02-20T07:56:27.501Z,8.05
2023-02-20T07:58:56.269Z,6.05
2023-02-20T08:01:22.882Z,7.43
2023-02-20T08:03:51.549Z,5.95
2023-02-20T08:06:22.080Z,6.67
2023-02-20T08:08:54.451Z,7.70
2023-02-20T08:11:22.975Z,6.28
2023-02-20T08:13:49.673Z,7.43
2023-02-20T08:16:17.009Z,5.60
2023-02-20T08:18:43.846Z,7.30
2023-02-20T08:21:10.391Z,5.32
2023-02-20T08:23:39.218Z,8.98
2023-02-20T08:26:10.897Z,6.85
2023-02-20T08:28:37.771Z,6.82
2023-02-20T08:31:05.193Z,7.47
2023-02-20T08:33:31.822Z,6.85
2023-02-20T08:35:58.438Z,7.13
2023-02-20T08:38:32.073Z,8.30
2023-02-20T08:40:58.890Z,7.68
2023-02-20T08:43:28.021Z,6.50
2023-02-20T08:45:55.517Z,8.27
2023-02-20T08:48:27.035Z,8.98
2023-02-20T08:50:56.206Z,7.38
2023-02-20T08:53:25.009Z,7.40
2023-02-20T08:55:53.828Z,6.93
2023-02-20T08:58:24.650Z,7.72
2023-02-20T09:00:54.767Z,7.75
2023-02-20T09:03:24.018Z,6.28
2023-02-20T09:05:50.634Z,7.05
2023-02-20T09:08:19.690Z,9.33
2023-02-20T09:10:48.687Z,6.82
2023-02-20T09:13:15.405Z,7.25
2023-02-20T09:15:41.946Z,10.07
2023-02-20T09:18:15.533Z,6.97
2023-02-20T09:20:44.791Z,6.90
2023-02-20T09:23:14.536Z,5.78
2023-02-20T09:25:41.082Z,6.43
2023-02-20T09:28:10.166Z,7.05
2023-02-20T09:30:39.900Z,6.50
2023-02-20T09:33:09.619Z,7.03
2023-02-20T09:35:36.187Z,7.13
2023-02-20T09:38:06.977Z,8.50
2023-02-20T09:40:33.642Z,5.57
2023-02-20T09:43:15.512Z,6.60
2023-02-20T09:46:02.469Z,6.83
2023-02-20T09:48:52.117Z,6.63
2023-02-20T09:51:27.841Z,6.68
2023-02-20T09:54:02.985Z,6.45
2023-02-20T09:56:52.094Z,6.43
2023-02-20T09:59:22.175Z,6.27
2023-02-20T10:02:01.971Z,7.05
2023-02-20T10:04:38.550Z,5.63
2023-02-20T10:07:36.145Z,8.00
2023-02-20T10:10:24.852Z,7.40
2023-02-20T10:13:20.435Z,6.03
2023-02-20T10:15:50.045Z,6.57
2023-02-20T10:18:42.856Z,6.10
2023-02-20T10:21:34.991Z,7.85
2023-02-20T10:24:32.582Z,4.80
2023-02-20T10:27:20.091Z,15.77
2023-02-20T10:29:49.406Z,5.32
2023-02-20T10:32:26.194Z,5.13
2023-02-20T10:35:02.552Z,4.85
2023-02-20T10:37:47.453Z,7.05
2023-02-20T10:40:24.663Z,5.67
2023-02-20T10:43:06.159Z,5.25
2023-02-20T10:45:51.040Z,4.72
2023-02-20T10:48:17.855Z,5.53
2023-02-20T10:51:09.705Z,6.40
2023-02-20T10:53:54.838Z,5.27
2023-02-20T10:56:37.515Z,5.47
2023-02-20T10:59:10.128Z,5.57
2023-02-20T11:01:40.510Z,5.38
2023-02-20T11:04:17.505Z,6.78
2023-02-20T11:06:54.310Z,6.30
2023-02-20T11:09:23.253Z,4.95
2023-02-20T11:11:50.074Z,8.52
2023-02-20T11:14:40.935Z,5.38
2023-02-20T11:17:21.183Z,7.13
2023-02-20T11:19:49.537Z,6.20
2023-02-20T11:22:36.927Z,7.20
2023-02-20T11:25:16.004Z,8.65
2023-02-20T11:27:47.472Z,6.45
2023-02-20T11:30:34.333Z,6.97
2023-02-20T11:33:17.514Z,7.47
2023-02-20T11:35:50.750Z,6.10
2023-02-20T11:38:31.249Z,7.32
2023-02-20T11:41:00.780Z,7.78
2023-02-20T11:43:28.892Z,6.07
2023-02-20T11:46:08.523Z,6.10
2023-02-20T11:48:40.489Z,6.50
2023-02-20T11:51:33.151Z,7.10
2023-02-20T11:54:24.433Z,5.40
2023-02-20T11:57:20.575Z,7.88
2023-02-20T11:59:49.633Z,5.17
2023-02-20T12:02:18.393Z,6.22
2023-02-20T12:05:01.260Z,6.68
2023-02-20T12:07:34.210Z,5.60
2023-02-20T12:10:39.741Z,6.65
2023-02-20T12:13:11.345Z,6.00
2023-02-20T12:15:37.990Z,4.65
2023-02-20T12:18:18.407Z,6.32
2023-02-20T12:21:01.395Z,6.05
2023-02-20T12:23:36.310Z,7.47
2023-02-20T12:26:08.811Z,6.43
2023-02-20T12:28:38.520Z,5.35
2023-02-20T12:31:14.076Z,5.47
2023-02-20T12:33:50.505Z,6.85
2023-02-20T12:36:25.719Z,5.93
2023-02-20T12:39:07.801Z,6.47
2023-02-20T12:41:57.086Z,6.70
2023-02-20T12:44:36.698Z,5.07
2023-02-20T12:47:15.521Z,5.53
2023-02-20T12:49:54.711Z,4.60
2023-02-20T12:52:53.756Z,6.23
2023-02-20T12:55:44.667Z,5.10
2023-02-20T12:58:34.428Z,5.13
2023-02-20T13:01:09.617Z,5.68
2023-02-20T13:03:58.646Z,5.70
2023-02-20T13:06:33.869Z,6.43
2023-02-20T13:09:16.013Z,6.93
2023-02-20T13:11:47.816Z,4.75
2023-02-20T13:14:14.277Z,5.47
2023-02-20T13:16:44.573Z,5.28
2023-02-20T13:19:25.663Z,5.93
2023-02-20T13:22:00.576Z,5.55
2023-02-20T13:24:30.349Z,8.88
2023-02-20T13:27:06.637Z,6.07
2023-02-20T13:29:36.094Z,6.70
2023-02-20T13:32:25.273Z,5.27
2023-02-20T13:34:56.617Z,5.50
2023-02-20T13:37:37.605Z,4.75
2023-02-20T13:40:25.995Z,4.20
2023-02-20T13:43:35.006Z,4.85
2023-02-20T13:46:04.438Z,5.67
2023-02-20T13:48:31.043Z,4.78
2023-02-20T13:51:25.441Z,5.10
2023-02-20T13:54:03.115Z,5.07
2023-02-20T13:56:46.472Z,5.18
2023-02-20T13:59:18.449Z,4.60
2023-02-20T14:01:58.405Z,5.43
2023-02-20T14:04:25.320Z,5.82
2023-02-20T14:06:58.293Z,4.70
2023-02-20T14:09:33.746Z,4.75
2023-02-20T14:12:13.368Z,5.03
2023-02-20T14:14:44.878Z,4.95
2023-02-20T14:17:21.719Z,5.05
2023-02-20T14:20:08.598Z,4.78
2023-02-20T14:22:39.949Z,6.68
2023-02-20T14:25:12.592Z,5.83
2023-02-20T14:27:42.684Z,5.75
2023-02-20T14:30:18.182Z,5.82
2023-02-20T14:32:47.597Z,4.78
2023-02-20T14:35:39.763Z,5.20
2023-02-20T14:38:36.370Z,5.13
2023-02-20T14:41:12.383Z,4.05
2023-02-20T14:43:41.800Z,3.95
2023-02-20T14:46:21.806Z,6.00
2023-02-20T14:48:48.423Z,4.88
2023-02-20T14:51:17.868Z,4.07
2023-02-20T14:53:56.258Z,5.45
2023-02-20T14:56:22.824Z,4.82
2023-02-20T14:58:49.445Z,4.85
2023-02-20T15:01:36.172Z,6.60
2023-02-20T15:04:15.182Z,5.73
2023-02-20T15:06:48.299Z,6.80
2023-02-20T15:09:22.816Z,3.85
2023-02-20T15:11:59.560Z,6.15
2023-02-20T15:14:28.455Z,6.20
2023-02-20T15:17:14.252Z,5.37
2023-02-20T15:19:43.375Z,6.72
2023-02-20T15:22:28.830Z,4.13
2023-02-20T15:25:15.553Z,6.25
2023-02-20T15:28:05.131Z,4.95
2023-02-20T15:30:34.480Z,5.17
2023-02-20T15:33:01.243Z,5.28
2023-02-20T15:35:31.236Z,4.55
2023-02-20T15:38:04.539Z,5.03
2023-02-20T15:40:35.480Z,6.53
2023-02-20T15:43:04.671Z,6.97
2023-02-20T15:45:37.607Z,6.82
2023-02-20T15:48:07.269Z,5.22
2023-02-20T15:50:34.409Z,5.05
2023-02-20T15:53:08.630Z,6.18
2023-02-20T15:55:35.946Z,5.07
2023-02-20T15:58:08.606Z,4.20
2023-02-20T16:00:35.340Z,4.57
2023-02-20T16:03:04.344Z,5.90
2023-02-20T16:05:31.149Z,4.40
2023-02-20T16:07:57.784Z,5.33
2023-02-20T16:10:25.688Z,6.45
2023-02-20T16:12:59.351Z,5.22
2023-02-20T16:15:30.690Z,4.43
2023-02-20T16:17:57.293Z,4.40
2023-02-20T16:20:27.669Z,4.83
2023-02-20T16:22:59.259Z,5.00
2023-02-20T16:25:25.943Z,7.03
2023-02-20T16:27:56.832Z,5.78
2023-02-20T16:30:34.214Z,4.32
2023-02-20T16:33:05.426Z,5.30
2023-02-20T16:35:32.070Z,4.43
2023-02-20T16:37:58.680Z,5.60
2023-02-20T16:40:30.048Z,4.88
2023-02-20T16:42:56.661Z,3.40
2023-02-20T16:45:23.474Z,5.27
2023-02-20T16:47:52.871Z,3.78
2023-02-20T16:50:25.969Z,4.00
2023-02-20T16:52:57.293Z,3.88
2023-02-20T16:55:38.909Z,3.67
2023-02-20T16:58:08.431Z,4.40
2023-02-20T17:00:51.023Z,5.57
2023-02-20T17:03:23.149Z,3.17
2023-02-20T17:05:58.515Z,3.95
2023-02-20T17:08:26.020Z,3.75
2023-02-20T17:10:52.884Z,4.00
2023-02-20T17:13:19.429Z,5.35
2023-02-20T17:15:47.815Z,3.13
2023-02-20T17:18:14.783Z,5.70
2023-02-20T17:20:41.489Z,4.68
2023-02-20T17:23:08.116Z,2.67
2023-02-20T17:25:37.028Z,4.70
2023-02-20T17:28:05.407Z,4.10
2023-02-20T17:30:32.183Z,3.47
2023-02-20T17:33:00.932Z,3.83
2023-02-20T17:35:29.701Z,7.40
2023-02-20T17:37:59.414Z,4.03
2023-02-20T17:40:28.206Z,3.78
2023-02-20T17:42:57.135Z,7.95
2023-02-20T17:45:25.930Z,5.05
2023-02-20T17:47:54.912Z,4.33
2023-02-20T17:50:21.633Z,3.63
2023-02-20T17:52:49.452Z,5.18
2023-02-20T17:55:23.558Z,4.57
2023-02-20T17:57:53.041Z,4.07
2023-02-20T18:00:24.556Z,5.03
2023-02-20T18:02:51.256Z,5.90
2023-02-20T18:05:22.802Z,3.50
2023-02-20T18:07:51.667Z,6.47
2023-02-20T18:10:22.852Z,4.95
2023-02-20T18:13:02.490Z,4.00
2023-02-20T18:15:34.537Z,4.13
2023-02-20T18:18:04.477Z,3.22
2023-02-20T18:20:31.306Z,3.97
2023-02-20T18:22:58.926Z,5.55
2023-02-20T18:25:39.045Z,3.80
2023-02-20T18:28:07.581Z,4.57
2023-02-20T18:30:34.696Z,4.95
2023-02-20T18:33:04.018Z,4.18
2023-02-20T18:35:30.525Z,5.10
2023-02-20T18:37:57.398Z,7.00
2023-02-20T18:40:24.226Z,6.55
2023-02-20T18:42:53.225Z,4.95
2023-02-20T18:45:23.931Z,6.10
2023-02-20T18:47:53.899Z,4.65
2023-02-20T18:50:21.092Z,5.13
2023-02-20T18:52:48.899Z,5.22
2023-02-20T18:55:17.953Z,5.47
2023-02-20T18:57:49.006Z,4.20
2023-02-20T19:00:23.828Z,4.90
2023-02-20T19:02:51.848Z,4.40
2023-02-20T19:05:18.702Z,6.60
2023-02-20T19:07:48.311Z,5.43
2023-02-20T19:10:21.986Z,7.32
2023-02-20T19:12:49.248Z,4.65
2023-02-20T19:15:17.028Z,4.60
2023-02-20T19:17:47.809Z,4.13
2023-02-20T19:20:17.439Z,6.07
2023-02-20T19:22:46.221Z,4.93
2023-02-20T19:25:13.789Z,4.57
2023-02-20T19:27:40.460Z,3.87
2023-02-20T19:30:10.227Z,3.80
2023-02-20T19:32:39.128Z,4.15
2023-02-20T19:35:08.692Z,4.28
2023-02-20T19:37:36.557Z,5.07
2023-02-20T19:40:03.708Z,6.10
2023-02-20T19:42:30.249Z,4.53
2023-02-20T19:44:58.940Z,4.60
2023-02-20T19:47:25.632Z,3.80
2023-02-20T19:49:57.189Z,5.68
2023-02-20T19:52:26.203Z,3.77
2023-02-20T19:54:52.880Z,6.10
2023-02-20T19:57:19.490Z,8.70
2023-02-20T19:59:46.096Z,8.98
2023-02-20T20:02:15.446Z,9.25
2023-02-20T20:04:44.087Z,9.47
2023-02-20T20:07:14.159Z,9.32
2023-02-20T20:09:45.532Z,8.57
2023-02-20T20:12:30.713Z,8.32
2023-02-20T20:15:00.390Z,7.28
2023-02-20T20:17:27.077Z,6.77
2023-02-20T20:19:58.905Z,6.97
2023-02-20T20:22:27.397Z,7.85
2023-02-20T20:24:57.577Z,8.48
2023-02-20T20:27:24.290Z,6.82
2023-02-20T20:29:51.733Z,6.33
2023-02-20T20:32:20.905Z,7.15
2023-02-20T20:34:53.158Z,6.50
2023-02-20T20:37:26.129Z,5.40
2023-02-20T20:39:54.270Z,6.68
2023-02-20T20:42:25.283Z,8.17
2023-02-20T20:44:59.513Z,8.25
2023-02-20T20:47:29.168Z,8.88
2023-02-20T20:49:56.403Z,8.27
2023-02-20T20:52:24.795Z,8.70
2023-02-20T20:54:53.327Z,9.03
2023-02-20T20:57:22.669Z,9.98
2023-02-20T20:59:49.553Z,9.40
2023-02-20T21:02:21.942Z,9.95
2023-02-20T21:04:52.931Z,9.85
2023-02-20T21:07:22.614Z,8.83
2023-02-20T21:09:49.157Z,7.57
2023-02-20T21:12:18.127Z,8.75
2023-02-20T21:14:44.716Z,6.82
2023-02-20T21:17:12.704Z,7.15
2023-02-20T21:19:39.664Z,8.80
2023-02-20T21:22:06.228Z,6.47
2023-02-20T21:24:36.286Z,7.38
2023-02-20T21:27:04.470Z,6.55
2023-02-20T21:29:34.883Z,6.68
2023-02-20T21:32:01.649Z,8.27
2023-02-20T21:34:32.906Z,10.27
2023-02-20T21:36:59.858Z,11.15
2023-02-20T21:39:26.376Z,9.65
2023-02-20T21:42:12.096Z,8.25
2023-02-20T21:44:42.829Z,9.70
2023-02-20T21:47:10.468Z,9.70
2023-02-20T21:49:45.213Z,8.27
2023-02-20T21:52:12.673Z,9.50
2023-02-20T21:54:41.282Z,9.35
2023-02-20T21:57:07.901Z,9.33
2023-02-20T21:59:34.421Z,8.40
2023-02-20T22:02:00.943Z,7.93
2023-02-20T22:04:27.527Z,8.30
2023-02-20T22:07:12.732Z,5.97
2023-02-20T22:09:57.940Z,6.87
2023-02-20T22:12:43.187Z,6.63
2023-02-20T22:15:31.499Z,6.70
2023-02-20T22:18:16.870Z,6.68
2023-02-20T22:21:01.715Z,5.88
2023-02-20T22:23:49.137Z,5.57
2023-02-20T22:26:35.189Z,6.57
2023-02-20T22:29:21.187Z,7.40
2023-02-20T22:32:06.648Z,6.93
2023-02-20T22:35:02.234Z,8.73
2023-02-20T22:37:54.845Z,7.50
2023-02-20T22:40:39.971Z,10.60
2023-02-20T22:43:25.058Z,8.35
2023-02-20T22:46:12.494Z,9.82
2023-02-20T22:48:57.664Z,9.90
2023-02-20T22:51:44.997Z,8.73
2023-02-20T22:54:32.531Z,8.77
2023-02-20T22:57:20.343Z,10.45
2023-02-20T23:00:05.503Z,8.43
2023-02-20T23:02:53.301Z,7.82
2023-02-20T23:05:38.487Z,9.17
2023-02-20T23:08:26.157Z,7.88
2023-02-20T23:11:11.234Z,8.48
2023-02-20T23:13:56.535Z,7.95
2023-02-20T23:16:45.430Z,10.27
2023-02-20T23:19:33.032Z,10.60
2023-02-20T23:22:17.994Z,7.28
2023-02-20T23:25:03.045Z,8.27
2023-02-20T23:27:48.057Z,7.90
2023-02-20T23:30:33.363Z,9.55
2023-02-20T23:33:18.536Z,10.70
2023-02-20T23:36:03.613Z,6.85
2023-02-20T23:38:48.917Z,7.95
2023-02-20T23:41:33.707Z,8.93
2023-02-20T23:44:18.532Z,7.20
2023-02-20T23:47:05.575Z,6.53
2023-02-20T23:49:53.525Z,8.02
2023-02-20T23:52:38.613Z,8.43
2023-02-20T23:55:24.141Z,7.50
2023-02-20T23:58:09.310Z,9.30
